sensor_id;sensor_type;location;lat;lon;timestamp;P1;durP1;ratioP1;P2;durP2;ratioP2
72584;SDS011;60618;40.084;32.908;2023-09-12T00:01:38;6.45;;;2.20;;
72584;SDS011;60618;40.084;32.908;2023-09-12T00:04:05;5.60;;;2.40;;
72584;SDS011;60618;40.084;32.908;2023-09-12T00:06:32;5.22;;;2.15;;
72584;SDS011;60618;40.084;32.908;2023-09-12T00:08:59;5.03;;;2.15;;
72584;SDS011;60618;40.084;32.908;2023-09-12T00:11:26;5.27;;;2.20;;
72584;SDS011;60618;40.084;32.908;2023-09-12T00:13:53;4.65;;;1.85;;
72584;SDS011;60618;40.084;32.908;2023-09-12T00:16:20;5.25;;;2.15;;
72584;SDS011;60618;40.084;32.908;2023-09-12T00:18:47;5.07;;;2.03;;
72584;SDS011;60618;40.084;32.908;2023-09-12T00:21:16;4.13;;;2.13;;
72584;SDS011;60618;40.084;32.908;2023-09-12T00:23:43;5.23;;;2.30;;
72584;SDS011;60618;40.084;32.908;2023-09-12T00:26:10;4.05;;;2.20;;
72584;SDS011;60618;40.084;32.908;2023-09-12T00:28:37;5.20;;;2.30;;
72584;SDS011;60618;40.084;32.908;2023-09-12T00:31:04;5.03;;;2.15;;
72584;SDS011;60618;40.084;32.908;2023-09-12T00:33:30;5.20;;;2.22;;
72584;SDS011;60618;40.084;32.908;2023-09-12T00:35:58;6.20;;;2.10;;
72584;SDS011;60618;40.084;32.908;2023-09-12T00:38:25;5.18;;;2.20;;
72584;SDS011;60618;40.084;32.908;2023-09-12T00:40:52;5.03;;;2.13;;
72584;SDS011;60618;40.084;32.908;2023-09-12T00:43:19;7.68;;;2.30;;
72584;SDS011;60618;40.084;32.908;2023-09-12T00:45:46;4.68;;;2.15;;
72584;SDS011;60618;40.084;32.908;2023-09-12T00:48:13;5.07;;;2.13;;
72584;SDS011;60618;40.084;32.908;2023-09-12T00:50:41;4.82;;;2.17;;
72584;SDS011;60618;40.084;32.908;2023-09-12T00:53:09;4.40;;;2.38;;
72584;SDS011;60618;40.084;32.908;2023-09-12T00:55:37;4.85;;;2.25;;
72584;SDS011;60618;40.084;32.908;2023-09-12T00:58:10;5.03;;;2.10;;
72584;SDS011;60618;40.084;32.908;2023-09-12T01:00:37;5.10;;;2.33;;
72584;SDS011;60618;40.084;32.908;2023-09-12T01:03:04;5.28;;;2.20;;
72584;SDS011;60618;40.084;32.908;2023-09-12T01:05:31;4.82;;;2.30;;
72584;SDS011;60618;40.084;32.908;2023-09-12T01:07:59;5.93;;;2.30;;
72584;SDS011;60618;40.084;32.908;2023-09-12T01:10:26;4.72;;;2.20;;
72584;SDS011;60618;40.084;32.908;2023-09-12T01:12:53;5.37;;;2.10;;
72584;SDS011;60618;40.084;32.908;2023-09-12T01:15:20;6.63;;;2.28;;
72584;SDS011;60618;40.084;32.908;2023-09-12T01:17:48;4.30;;;2.33;;
72584;SDS011;60618;40.084;32.908;2023-09-12T01:20:27;4.60;;;2.30;;
72584;SDS011;60618;40.084;32.908;2023-09-12T01:26:01;4.13;;;2.20;;
72584;SDS011;60618;40.084;32.908;2023-09-12T01:28:36;8.38;;;2.10;;
72584;SDS011;60618;40.084;32.908;2023-09-12T01:31:07;4.10;;;2.05;;
72584;SDS011;60618;40.084;32.908;2023-09-12T01:33:34;6.50;;;2.40;;
72584;SDS011;60618;40.084;32.908;2023-09-12T01:36:01;5.13;;;2.33;;
72584;SDS011;60618;40.084;32.908;2023-09-12T01:38:28;4.03;;;2.07;;
72584;SDS011;60618;40.084;32.908;2023-09-12T01:40:55;4.78;;;2.15;;
72584;SDS011;60618;40.084;32.908;2023-09-12T01:43:23;5.15;;;2.20;;
72584;SDS011;60618;40.084;32.908;2023-09-12T01:45:55;4.40;;;2.13;;
72584;SDS011;60618;40.084;32.908;2023-09-12T01:48:26;4.97;;;2.20;;
72584;SDS011;60618;40.084;32.908;2023-09-12T01:51:01;5.57;;;2.73;;
72584;SDS011;60618;40.084;32.908;2023-09-12T01:53:30;4.43;;;2.20;;
72584;SDS011;60618;40.084;32.908;2023-09-12T01:55:59;5.47;;;2.55;;
72584;SDS011;60618;40.084;32.908;2023-09-12T01:58:26;5.82;;;2.35;;
72584;SDS011;60618;40.084;32.908;2023-09-12T02:00:53;4.97;;;2.15;;
72584;SDS011;60618;40.084;32.908;2023-09-12T02:03:21;5.93;;;2.40;;
72584;SDS011;60618;40.084;32.908;2023-09-12T02:05:48;4.72;;;2.20;;
72584;SDS011;60618;40.084;32.908;2023-09-12T02:08:15;5.20;;;2.20;;
72584;SDS011;60618;40.084;32.908;2023-09-12T02:10:42;5.30;;;2.10;;
72584;SDS011;60618;40.084;32.908;2023-09-12T02:13:09;4.68;;;2.00;;
72584;SDS011;60618;40.084;32.908;2023-09-12T02:15:35;5.20;;;2.20;;
72584;SDS011;60618;40.084;32.908;2023-09-12T02:18:03;4.20;;;2.22;;
72584;SDS011;60618;40.084;32.908;2023-09-12T02:20:31;5.13;;;2.20;;
72584;SDS011;60618;40.084;32.908;2023-09-12T02:22:58;5.05;;;2.30;;
72584;SDS011;60618;40.084;32.908;2023-09-12T02:25:25;5.07;;;2.30;;
72584;SDS011;60618;40.084;32.908;2023-09-12T02:27:52;6.03;;;2.50;;
72584;SDS011;60618;40.084;32.908;2023-09-12T02:30:19;6.93;;;2.50;;
72584;SDS011;60618;40.084;32.908;2023-09-12T02:32:46;5.97;;;2.28;;
72584;SDS011;60618;40.084;32.908;2023-09-12T02:35:13;5.78;;;2.40;;
72584;SDS011;60618;40.084;32.908;2023-09-12T02:37:40;5.53;;;2.47;;
72584;SDS011;60618;40.084;32.908;2023-09-12T02:40:07;4.80;;;2.40;;
72584;SDS011;60618;40.084;32.908;2023-09-12T02:42:35;5.10;;;2.22;;
72584;SDS011;60618;40.084;32.908;2023-09-12T02:45:02;6.05;;;2.45;;
72584;SDS011;60618;40.084;32.908;2023-09-12T02:47:30;4.82;;;2.20;;
72584;SDS011;60618;40.084;32.908;2023-09-12T02:49:57;4.60;;;2.28;;
72584;SDS011;60618;40.084;32.908;2023-09-12T02:52:24;6.33;;;2.30;;
72584;SDS011;60618;40.084;32.908;2023-09-12T02:54:51;5.28;;;2.40;;
72584;SDS011;60618;40.084;32.908;2023-09-12T02:57:17;4.43;;;2.45;;
72584;SDS011;60618;40.084;32.908;2023-09-12T02:59:44;6.25;;;2.40;;
72584;SDS011;60618;40.084;32.908;2023-09-12T03:02:11;6.40;;;2.40;;
72584;SDS011;60618;40.084;32.908;2023-09-12T03:04:38;5.53;;;2.70;;
72584;SDS011;60618;40.084;32.908;2023-09-12T03:07:05;5.25;;;2.58;;
72584;SDS011;60618;40.084;32.908;2023-09-12T03:09:32;6.75;;;2.60;;
72584;SDS011;60618;40.084;32.908;2023-09-12T03:12:02;5.03;;;2.45;;
72584;SDS011;60618;40.084;32.908;2023-09-12T03:14:30;5.65;;;2.50;;
72584;SDS011;60618;40.084;32.908;2023-09-12T03:16:57;4.73;;;2.30;;
72584;SDS011;60618;40.084;32.908;2023-09-12T03:19:24;5.20;;;2.60;;
72584;SDS011;60618;40.084;32.908;2023-09-12T03:21:51;5.38;;;2.40;;
72584;SDS011;60618;40.084;32.908;2023-09-12T03:24:18;5.20;;;2.58;;
72584;SDS011;60618;40.084;32.908;2023-09-12T03:26:45;4.80;;;2.53;;
72584;SDS011;60618;40.084;32.908;2023-09-12T03:29:12;5.03;;;2.80;;
72584;SDS011;60618;40.084;32.908;2023-09-12T03:31:39;5.40;;;2.53;;
72584;SDS011;60618;40.084;32.908;2023-09-12T03:34:06;4.82;;;2.58;;
72584;SDS011;60618;40.084;32.908;2023-09-12T03:36:33;5.95;;;2.72;;
72584;SDS011;60618;40.084;32.908;2023-09-12T03:38:59;4.55;;;2.38;;
72584;SDS011;60618;40.084;32.908;2023-09-12T03:41:26;5.63;;;2.57;;
72584;SDS011;60618;40.084;32.908;2023-09-12T03:43:53;4.72;;;2.60;;
72584;SDS011;60618;40.084;32.908;2023-09-12T03:46:21;5.80;;;2.85;;
72584;SDS011;60618;40.084;32.908;2023-09-12T03:48:48;6.55;;;2.70;;
72584;SDS011;60618;40.084;32.908;2023-09-12T03:51:15;5.03;;;2.60;;
72584;SDS011;60618;40.084;32.908;2023-09-12T03:53:42;5.13;;;2.50;;
72584;SDS011;60618;40.084;32.908;2023-09-12T03:56:10;8.25;;;2.95;;
72584;SDS011;60618;40.084;32.908;2023-09-12T03:58:36;5.75;;;2.60;;
72584;SDS011;60618;40.084;32.908;2023-09-12T04:01:03;7.03;;;2.60;;
72584;SDS011;60618;40.084;32.908;2023-09-12T04:03:30;4.90;;;2.50;;
72584;SDS011;60618;40.084;32.908;2023-09-12T04:05:57;8.97;;;2.73;;
72584;SDS011;60618;40.084;32.908;2023-09-12T04:08:24;6.18;;;2.58;;
72584;SDS011;60618;40.084;32.908;2023-09-12T04:10:51;5.55;;;2.33;;
72584;SDS011;60618;40.084;32.908;2023-09-12T04:13:18;5.50;;;2.60;;
72584;SDS011;60618;40.084;32.908;2023-09-12T04:15:46;5.03;;;2.40;;
72584;SDS011;60618;40.084;32.908;2023-09-12T04:18:13;4.77;;;2.50;;
72584;SDS011;60618;40.084;32.908;2023-09-12T04:20:40;5.40;;;2.70;;
72584;SDS011;60618;40.084;32.908;2023-09-12T04:23:07;5.00;;;2.60;;
72584;SDS011;60618;40.084;32.908;2023-09-12T04:25:34;5.05;;;2.50;;
72584;SDS011;60618;40.084;32.908;2023-09-12T04:28:01;5.30;;;2.60;;
72584;SDS011;60618;40.084;32.908;2023-09-12T04:30:28;6.53;;;2.33;;
72584;SDS011;60618;40.084;32.908;2023-09-12T04:32:55;7.80;;;2.88;;
72584;SDS011;60618;40.084;32.908;2023-09-12T04:35:22;4.97;;;2.40;;
72584;SDS011;60618;40.084;32.908;2023-09-12T04:37:49;5.15;;;2.70;;
72584;SDS011;60618;40.084;32.908;2023-09-12T04:40:16;5.97;;;2.60;;
72584;SDS011;60618;40.084;32.908;2023-09-12T04:42:43;5.50;;;2.50;;
72584;SDS011;60618;40.084;32.908;2023-09-12T04:45:10;4.88;;;2.47;;
72584;SDS011;60618;40.084;32.908;2023-09-12T04:47:37;5.80;;;2.83;;
72584;SDS011;60618;40.084;32.908;2023-09-12T04:50:04;4.40;;;2.50;;
72584;SDS011;60618;40.084;32.908;2023-09-12T04:52:32;5.07;;;2.65;;
72584;SDS011;60618;40.084;32.908;2023-09-12T04:54:59;6.50;;;2.80;;
72584;SDS011;60618;40.084;32.908;2023-09-12T04:57:28;6.57;;;2.80;;
72584;SDS011;60618;40.084;32.908;2023-09-12T04:59:55;5.35;;;2.63;;
72584;SDS011;60618;40.084;32.908;2023-09-12T05:02:22;6.03;;;2.60;;
72584;SDS011;60618;40.084;32.908;2023-09-12T05:04:49;5.68;;;2.72;;
72584;SDS011;60618;40.084;32.908;2023-09-12T05:07:16;6.03;;;2.70;;
72584;SDS011;60618;40.084;32.908;2023-09-12T05:09:43;6.45;;;3.00;;
72584;SDS011;60618;40.084;32.908;2023-09-12T05:12:10;4.95;;;2.60;;
72584;SDS011;60618;40.084;32.908;2023-09-12T05:14:37;5.47;;;2.85;;
72584;SDS011;60618;40.084;32.908;2023-09-12T05:17:04;5.90;;;2.50;;
72584;SDS011;60618;40.084;32.908;2023-09-12T05:19:31;5.40;;;2.70;;
72584;SDS011;60618;40.084;32.908;2023-09-12T05:21:57;6.63;;;2.90;;
72584;SDS011;60618;40.084;32.908;2023-09-12T05:24:24;5.90;;;2.75;;
72584;SDS011;60618;40.084;32.908;2023-09-12T05:26:51;4.50;;;2.40;;
72584;SDS011;60618;40.084;32.908;2023-09-12T05:29:18;6.18;;;2.70;;
72584;SDS011;60618;40.084;32.908;2023-09-12T05:31:46;5.20;;;2.70;;
72584;SDS011;60618;40.084;32.908;2023-09-12T05:34:13;6.45;;;2.80;;
72584;SDS011;60618;40.084;32.908;2023-09-12T05:36:40;6.03;;;2.70;;
72584;SDS011;60618;40.084;32.908;2023-09-12T05:39:07;5.38;;;2.75;;
72584;SDS011;60618;40.084;32.908;2023-09-12T05:41:34;5.50;;;2.60;;
72584;SDS011;60618;40.084;32.908;2023-09-12T05:44:01;6.73;;;2.80;;
72584;SDS011;60618;40.084;32.908;2023-09-12T05:46:28;5.85;;;2.70;;
72584;SDS011;60618;40.084;32.908;2023-09-12T05:48:55;5.60;;;2.60;;
72584;SDS011;60618;40.084;32.908;2023-09-12T05:51:22;6.05;;;2.60;;
72584;SDS011;60618;40.084;32.908;2023-09-12T05:53:49;5.85;;;2.50;;
72584;SDS011;60618;40.084;32.908;2023-09-12T05:56:16;6.43;;;2.60;;
72584;SDS011;60618;40.084;32.908;2023-09-12T05:58:43;7.72;;;2.83;;
72584;SDS011;60618;40.084;32.908;2023-09-12T06:01:10;6.85;;;3.00;;
72584;SDS011;60618;40.084;32.908;2023-09-12T06:03:38;6.05;;;2.90;;
72584;SDS011;60618;40.084;32.908;2023-09-12T06:06:05;8.02;;;4.65;;
72584;SDS011;60618;40.084;32.908;2023-09-12T06:08:32;6.57;;;2.70;;
72584;SDS011;60618;40.084;32.908;2023-09-12T06:10:59;6.32;;;2.70;;
72584;SDS011;60618;40.084;32.908;2023-09-12T06:13:25;4.93;;;2.83;;
72584;SDS011;60618;40.084;32.908;2023-09-12T06:15:52;6.65;;;2.95;;
72584;SDS011;60618;40.084;32.908;2023-09-12T06:18:19;5.63;;;2.53;;
72584;SDS011;60618;40.084;32.908;2023-09-12T06:20:46;7.27;;;3.43;;
72584;SDS011;60618;40.084;32.908;2023-09-12T06:23:13;6.53;;;2.70;;
72584;SDS011;60618;40.084;32.908;2023-09-12T06:25:40;7.45;;;2.80;;
72584;SDS011;60618;40.084;32.908;2023-09-12T06:28:08;6.68;;;2.90;;
72584;SDS011;60618;40.084;32.908;2023-09-12T06:30:36;4.53;;;2.60;;
72584;SDS011;60618;40.084;32.908;2023-09-12T06:33:03;6.10;;;2.60;;
72584;SDS011;60618;40.084;32.908;2023-09-12T06:35:31;5.90;;;2.75;;
72584;SDS011;60618;40.084;32.908;2023-09-12T06:37:58;9.10;;;2.80;;
72584;SDS011;60618;40.084;32.908;2023-09-12T06:40:25;7.00;;;3.42;;
72584;SDS011;60618;40.084;32.908;2023-09-12T06:42:52;9.05;;;2.83;;
72584;SDS011;60618;40.084;32.908;2023-09-12T06:45:19;7.17;;;2.70;;
72584;SDS011;60618;40.084;32.908;2023-09-12T06:47:48;6.28;;;2.70;;
72584;SDS011;60618;40.084;32.908;2023-09-12T06:50:15;6.00;;;2.30;;
72584;SDS011;60618;40.084;32.908;2023-09-12T06:52:43;6.72;;;2.40;;
72584;SDS011;60618;40.084;32.908;2023-09-12T06:55:10;5.60;;;2.30;;
72584;SDS011;60618;40.084;32.908;2023-09-12T06:57:37;5.50;;;2.60;;
72584;SDS011;60618;40.084;32.908;2023-09-12T07:00:04;6.53;;;2.88;;
72584;SDS011;60618;40.084;32.908;2023-09-12T07:02:32;5.78;;;2.80;;
72584;SDS011;60618;40.084;32.908;2023-09-12T07:04:59;5.57;;;2.78;;
72584;SDS011;60618;40.084;32.908;2023-09-12T07:07:26;5.70;;;2.70;;
72584;SDS011;60618;40.084;32.908;2023-09-12T07:09:53;8.67;;;2.43;;
72584;SDS011;60618;40.084;32.908;2023-09-12T07:12:33;5.60;;;2.20;;
72584;SDS011;60618;40.084;32.908;2023-09-12T07:15:00;4.80;;;2.40;;
72584;SDS011;60618;40.084;32.908;2023-09-12T07:17:28;4.53;;;2.20;;
72584;SDS011;60618;40.084;32.908;2023-09-12T07:19:55;5.95;;;2.05;;
72584;SDS011;60618;40.084;32.908;2023-09-12T07:22:22;5.87;;;2.40;;
72584;SDS011;60618;40.084;32.908;2023-09-12T07:24:49;4.17;;;2.00;;
72584;SDS011;60618;40.084;32.908;2023-09-12T07:27:16;5.90;;;2.10;;
72584;SDS011;60618;40.084;32.908;2023-09-12T07:29:43;6.25;;;2.30;;
72584;SDS011;60618;40.084;32.908;2023-09-12T07:32:10;5.15;;;2.40;;
72584;SDS011;60618;40.084;32.908;2023-09-12T07:34:37;5.43;;;2.30;;
72584;SDS011;60618;40.084;32.908;2023-09-12T07:37:04;5.13;;;2.42;;
72584;SDS011;60618;40.084;32.908;2023-09-12T07:39:31;6.05;;;2.40;;
72584;SDS011;60618;40.084;32.908;2023-09-12T07:41:58;5.47;;;2.35;;
72584;SDS011;60618;40.084;32.908;2023-09-12T07:44:25;8.65;;;2.40;;
72584;SDS011;60618;40.084;32.908;2023-09-12T07:46:54;6.93;;;2.10;;
72584;SDS011;60618;40.084;32.908;2023-09-12T07:49:21;6.32;;;2.60;;
72584;SDS011;60618;40.084;32.908;2023-09-12T07:51:48;9.75;;;2.40;;
72584;SDS011;60618;40.084;32.908;2023-09-12T07:54:15;5.88;;;2.30;;
72584;SDS011;60618;40.084;32.908;2023-09-12T07:56:42;6.20;;;2.40;;
72584;SDS011;60618;40.084;32.908;2023-09-12T07:59:09;7.33;;;2.40;;
72584;SDS011;60618;40.084;32.908;2023-09-12T08:01:36;5.78;;;2.10;;
72584;SDS011;60618;40.084;32.908;2023-09-12T08:04:03;6.55;;;2.10;;
72584;SDS011;60618;40.084;32.908;2023-09-12T08:06:30;8.55;;;2.13;;
72584;SDS011;60618;40.084;32.908;2023-09-12T08:09:09;5.47;;;2.30;;
72584;SDS011;60618;40.084;32.908;2023-09-12T08:11:36;5.37;;;2.23;;
72584;SDS011;60618;40.084;32.908;2023-09-12T08:14:03;5.10;;;2.33;;
72584;SDS011;60618;40.084;32.908;2023-09-12T08:16:30;9.35;;;2.95;;
72584;SDS011;60618;40.084;32.908;2023-09-12T08:18:57;7.88;;;2.75;;
72584;SDS011;60618;40.084;32.908;2023-09-12T08:21:24;8.40;;;2.80;;
72584;SDS011;60618;40.084;32.908;2023-09-12T08:23:51;6.83;;;2.93;;
72584;SDS011;60618;40.084;32.908;2023-09-12T08:26:18;7.38;;;2.85;;
72584;SDS011;60618;40.084;32.908;2023-09-12T08:28:45;7.43;;;2.55;;
72584;SDS011;60618;40.084;32.908;2023-09-12T08:31:11;6.53;;;2.30;;
72584;SDS011;60618;40.084;32.908;2023-09-12T08:33:38;7.85;;;2.33;;
72584;SDS011;60618;40.084;32.908;2023-09-12T08:36:06;4.63;;;1.93;;
72584;SDS011;60618;40.084;32.908;2023-09-12T08:38:32;5.03;;;2.10;;
72584;SDS011;60618;40.084;32.908;2023-09-12T08:40:59;4.47;;;1.90;;
72584;SDS011;60618;40.084;32.908;2023-09-12T08:43:26;4.50;;;2.15;;
72584;SDS011;60618;40.084;32.908;2023-09-12T08:45:53;6.53;;;2.35;;
72584;SDS011;60618;40.084;32.908;2023-09-12T08:48:20;4.70;;;2.17;;
72584;SDS011;60618;40.084;32.908;2023-09-12T08:50:50;7.82;;;2.35;;
72584;SDS011;60618;40.084;32.908;2023-09-12T08:53:19;5.03;;;2.30;;
72584;SDS011;60618;40.084;32.908;2023-09-12T08:55:46;6.65;;;2.20;;
72584;SDS011;60618;40.084;32.908;2023-09-12T08:58:13;4.32;;;2.10;;
72584;SDS011;60618;40.084;32.908;2023-09-12T09:00:40;4.13;;;1.90;;
72584;SDS011;60618;40.084;32.908;2023-09-12T09:03:08;6.57;;;2.22;;
72584;SDS011;60618;40.084;32.908;2023-09-12T09:05:36;4.78;;;2.30;;
72584;SDS011;60618;40.084;32.908;2023-09-12T09:08:07;4.93;;;2.00;;
72584;SDS011;60618;40.084;32.908;2023-09-12T09:10:34;4.70;;;1.92;;
72584;SDS011;60618;40.084;32.908;2023-09-12T09:13:16;6.17;;;2.40;;
72584;SDS011;60618;40.084;32.908;2023-09-12T09:15:43;5.65;;;2.58;;
72584;SDS011;60618;40.084;32.908;2023-09-12T09:18:10;6.78;;;2.58;;
72584;SDS011;60618;40.084;32.908;2023-09-12T09:20:39;4.72;;;2.00;;
72584;SDS011;60618;40.084;32.908;2023-09-12T09:23:07;5.35;;;2.13;;
72584;SDS011;60618;40.084;32.908;2023-09-12T09:25:35;5.80;;;2.27;;
72584;SDS011;60618;40.084;32.908;2023-09-12T09:28:03;4.90;;;2.00;;
72584;SDS011;60618;40.084;32.908;2023-09-12T09:30:41;4.40;;;1.95;;
72584;SDS011;60618;40.084;32.908;2023-09-12T09:33:09;4.00;;;1.88;;
72584;SDS011;60618;40.084;32.908;2023-09-12T09:35:37;4.15;;;1.90;;
72584;SDS011;60618;40.084;32.908;2023-09-12T09:38:07;5.07;;;2.30;;
72584;SDS011;60618;40.084;32.908;2023-09-12T09:40:35;5.18;;;2.10;;
72584;SDS011;60618;40.084;32.908;2023-09-12T09:43:03;5.57;;;2.13;;
72584;SDS011;60618;40.084;32.908;2023-09-12T09:45:30;5.10;;;2.33;;
72584;SDS011;60618;40.084;32.908;2023-09-12T09:48:04;5.20;;;1.98;;
72584;SDS011;60618;40.084;32.908;2023-09-12T09:50:33;6.43;;;2.20;;
72584;SDS011;60618;40.084;32.908;2023-09-12T09:53:01;5.93;;;2.20;;
72584;SDS011;60618;40.084;32.908;2023-09-12T09:55:28;6.43;;;2.40;;
72584;SDS011;60618;40.084;32.908;2023-09-12T09:57:55;11.35;;;2.15;;
72584;SDS011;60618;40.084;32.908;2023-09-12T10:00:22;4.07;;;1.92;;
72584;SDS011;60618;40.084;32.908;2023-09-12T10:02:50;5.60;;;2.07;;
72584;SDS011;60618;40.084;32.908;2023-09-12T10:05:17;4.15;;;1.80;;
72584;SDS011;60618;40.084;32.908;2023-09-12T10:07:47;5.13;;;2.30;;
72584;SDS011;60618;40.084;32.908;2023-09-12T10:10:14;9.00;;;2.15;;
72584;SDS011;60618;40.084;32.908;2023-09-12T10:12:48;5.07;;;2.13;;
72584;SDS011;60618;40.084;32.908;2023-09-12T10:15:17;6.93;;;2.10;;
72584;SDS011;60618;40.084;32.908;2023-09-12T10:17:56;4.90;;;1.90;;
72584;SDS011;60618;40.084;32.908;2023-09-12T10:20:25;4.55;;;2.22;;
72584;SDS011;60618;40.084;32.908;2023-09-12T10:23:06;5.25;;;2.20;;
72584;SDS011;60618;40.084;32.908;2023-09-12T10:25:36;6.53;;;2.00;;
72584;SDS011;60618;40.084;32.908;2023-09-12T10:28:06;5.50;;;2.13;;
72584;SDS011;60618;40.084;32.908;2023-09-12T10:30:34;5.65;;;2.10;;
72584;SDS011;60618;40.084;32.908;2023-09-12T10:33:02;6.35;;;2.00;;
72584;SDS011;60618;40.084;32.908;2023-09-12T10:35:31;4.68;;;1.83;;
72584;SDS011;60618;40.084;32.908;2023-09-12T10:38:02;4.22;;;1.80;;
72584;SDS011;60618;40.084;32.908;2023-09-12T10:40:29;4.57;;;1.70;;
72584;SDS011;60618;40.084;32.908;2023-09-12T10:42:58;5.45;;;1.75;;
72584;SDS011;60618;40.084;32.908;2023-09-12T10:45:27;5.07;;;2.10;;
72584;SDS011;60618;40.084;32.908;2023-09-12T10:47:59;4.60;;;2.05;;
72584;SDS011;60618;40.084;32.908;2023-09-12T10:50:31;9.07;;;2.00;;
72584;SDS011;60618;40.084;32.908;2023-09-12T10:53:12;5.07;;;1.87;;
72584;SDS011;60618;40.084;32.908;2023-09-12T10:55:57;4.90;;;1.88;;
72584;SDS011;60618;40.084;32.908;2023-09-12T11:01:32;6.93;;;1.92;;
72584;SDS011;60618;40.084;32.908;2023-09-12T11:04:50;4.15;;;1.80;;
72584;SDS011;60618;40.084;32.908;2023-09-12T11:06:56;4.00;;;1.77;;
72584;SDS011;60618;40.084;32.908;2023-09-12T11:09:32;4.80;;;1.60;;
72584;SDS011;60618;40.084;32.908;2023-09-12T11:12:03;3.88;;;1.60;;
72584;SDS011;60618;40.084;32.908;2023-09-12T11:14:35;5.07;;;1.95;;
72584;SDS011;60618;40.084;32.908;2023-09-12T11:17:29;14.75;;;2.20;;
72584;SDS011;60618;40.084;32.908;2023-09-12T11:19:57;4.27;;;1.70;;
72584;SDS011;60618;40.084;32.908;2023-09-12T11:22:30;5.82;;;1.83;;
72584;SDS011;60618;40.084;32.908;2023-09-12T11:25:01;4.95;;;2.03;;
72584;SDS011;60618;40.084;32.908;2023-09-12T11:27:32;5.03;;;1.90;;
72584;SDS011;60618;40.084;32.908;2023-09-12T11:30:12;4.43;;;1.80;;
72584;SDS011;60618;40.084;32.908;2023-09-12T11:32:40;4.50;;;1.70;;
72584;SDS011;60618;40.084;32.908;2023-09-12T11:35:10;3.85;;;1.77;;
72584;SDS011;60618;40.084;32.908;2023-09-12T11:37:37;4.60;;;1.70;;
72584;SDS011;60618;40.084;32.908;2023-09-12T11:40:32;4.35;;;1.70;;
72584;SDS011;60618;40.084;32.908;2023-09-12T11:43:08;3.80;;;1.77;;
72584;SDS011;60618;40.084;32.908;2023-09-12T11:45:44;5.30;;;1.90;;
72584;SDS011;60618;40.084;32.908;2023-09-12T11:48:11;5.32;;;1.75;;
72584;SDS011;60618;40.084;32.908;2023-09-12T11:50:38;3.92;;;1.88;;
72584;SDS011;60618;40.084;32.908;2023-09-12T11:53:06;3.92;;;1.80;;
72584;SDS011;60618;40.084;32.908;2023-09-12T11:55:45;3.80;;;1.80;;
72584;SDS011;60618;40.084;32.908;2023-09-12T11:58:15;6.70;;;1.60;;
72584;SDS011;60618;40.084;32.908;2023-09-12T12:00:44;4.57;;;1.80;;
72584;SDS011;60618;40.084;32.908;2023-09-12T12:03:13;5.15;;;1.77;;
72584;SDS011;60618;40.084;32.908;2023-09-12T12:05:41;3.50;;;1.70;;
72584;SDS011;60618;40.084;32.908;2023-09-12T12:08:09;5.05;;;1.77;;
72584;SDS011;60618;40.084;32.908;2023-09-12T12:10:57;3.47;;;1.60;;
72584;SDS011;60618;40.084;32.908;2023-09-12T12:13:24;4.25;;;1.55;;
72584;SDS011;60618;40.084;32.908;2023-09-12T12:15:51;4.20;;;1.60;;
72584;SDS011;60618;40.084;32.908;2023-09-12T12:18:18;5.13;;;1.70;;
72584;SDS011;60618;40.084;32.908;2023-09-12T12:20:46;5.03;;;1.65;;
72584;SDS011;60618;40.084;32.908;2023-09-12T12:23:13;9.73;;;2.03;;
72584;SDS011;60618;40.084;32.908;2023-09-12T12:25:40;4.72;;;1.80;;
72584;SDS011;60618;40.084;32.908;2023-09-12T12:28:07;6.88;;;1.80;;
72584;SDS011;60618;40.084;32.908;2023-09-12T12:30:35;4.68;;;1.73;;
72584;SDS011;60618;40.084;32.908;2023-09-12T12:33:09;4.30;;;1.60;;
72584;SDS011;60618;40.084;32.908;2023-09-12T12:38:30;4.32;;;1.67;;
72584;SDS011;60618;40.084;32.908;2023-09-12T12:41:00;3.83;;;1.67;;
72584;SDS011;60618;40.084;32.908;2023-09-12T12:43:28;6.60;;;1.90;;
72584;SDS011;60618;40.084;32.908;2023-09-12T12:45:55;4.03;;;1.60;;
72584;SDS011;60618;40.084;32.908;2023-09-12T12:48:34;3.33;;;1.50;;
72584;SDS011;60618;40.084;32.908;2023-09-12T12:51:18;3.90;;;1.60;;
72584;SDS011;60618;40.084;32.908;2023-09-12T12:53:54;6.35;;;1.80;;
72584;SDS011;60618;40.084;32.908;2023-09-12T12:56:29;4.40;;;1.70;;
72584;SDS011;60618;40.084;32.908;2023-09-12T12:58:58;5.90;;;1.70;;
72584;SDS011;60618;40.084;32.908;2023-09-12T13:01:26;5.47;;;2.00;;
72584;SDS011;60618;40.084;32.908;2023-09-12T13:03:53;4.53;;;1.70;;
72584;SDS011;60618;40.084;32.908;2023-09-12T13:06:21;5.15;;;1.70;;
72584;SDS011;60618;40.084;32.908;2023-09-12T13:08:49;4.78;;;2.00;;
72584;SDS011;60618;40.084;32.908;2023-09-12T13:11:18;5.90;;;1.48;;
72584;SDS011;60618;40.084;32.908;2023-09-12T13:13:47;4.17;;;1.73;;
72584;SDS011;60618;40.084;32.908;2023-09-12T13:16:15;6.68;;;1.67;;
72584;SDS011;60618;40.084;32.908;2023-09-12T13:18:43;6.32;;;1.80;;
72584;SDS011;60618;40.084;32.908;2023-09-12T13:21:10;6.57;;;1.90;;
72584;SDS011;60618;40.084;32.908;2023-09-12T13:23:37;4.88;;;1.90;;
72584;SDS011;60618;40.084;32.908;2023-09-12T13:26:07;6.03;;;2.07;;
72584;SDS011;60618;40.084;32.908;2023-09-12T13:28:35;4.47;;;1.60;;
72584;SDS011;60618;40.084;32.908;2023-09-12T13:31:02;8.57;;;2.33;;
72584;SDS011;60618;40.084;32.908;2023-09-12T13:33:29;3.88;;;1.83;;
72584;SDS011;60618;40.084;32.908;2023-09-12T13:35:56;5.00;;;1.90;;
72584;SDS011;60618;40.084;32.908;2023-09-12T13:38:23;4.70;;;1.77;;
72584;SDS011;60618;40.084;32.908;2023-09-12T13:40:50;4.50;;;1.60;;
72584;SDS011;60618;40.084;32.908;2023-09-12T13:43:17;4.57;;;1.73;;
72584;SDS011;60618;40.084;32.908;2023-09-12T13:45:44;6.45;;;1.90;;
72584;SDS011;60618;40.084;32.908;2023-09-12T13:48:11;5.75;;;1.50;;
72584;SDS011;60618;40.084;32.908;2023-09-12T13:50:39;6.90;;;1.80;;
72584;SDS011;60618;40.084;32.908;2023-09-12T13:53:05;4.55;;;1.70;;
72584;SDS011;60618;40.084;32.908;2023-09-12T13:55:36;5.13;;;1.50;;
72584;SDS011;60618;40.084;32.908;2023-09-12T13:58:20;4.60;;;1.60;;
72584;SDS011;60618;40.084;32.908;2023-09-12T14:00:48;8.38;;;1.77;;
72584;SDS011;60618;40.084;32.908;2023-09-12T14:03:15;7.40;;;1.70;;
72584;SDS011;60618;40.084;32.908;2023-09-12T14:05:42;9.82;;;2.00;;
72584;SDS011;60618;40.084;32.908;2023-09-12T14:08:10;6.07;;;1.70;;
72584;SDS011;60618;40.084;32.908;2023-09-12T14:10:38;3.92;;;1.60;;
72584;SDS011;60618;40.084;32.908;2023-09-12T14:13:07;5.03;;;1.80;;
72584;SDS011;60618;40.084;32.908;2023-09-12T14:15:46;5.47;;;1.60;;
72584;SDS011;60618;40.084;32.908;2023-09-12T14:18:13;5.40;;;1.50;;
72584;SDS011;60618;40.084;32.908;2023-09-12T14:20:42;5.47;;;1.60;;
72584;SDS011;60618;40.084;32.908;2023-09-12T14:23:10;3.22;;;1.30;;
72584;SDS011;60618;40.084;32.908;2023-09-12T14:25:38;4.95;;;1.60;;
72584;SDS011;60618;40.084;32.908;2023-09-12T14:28:05;15.33;;;2.07;;
72584;SDS011;60618;40.084;32.908;2023-09-12T14:30:33;7.38;;;1.60;;
72584;SDS011;60618;40.084;32.908;2023-09-12T14:33:00;5.80;;;1.80;;
72584;SDS011;60618;40.084;32.908;2023-09-12T14:35:27;8.27;;;1.55;;
72584;SDS011;60618;40.084;32.908;2023-09-12T14:37:54;4.97;;;1.70;;
72584;SDS011;60618;40.084;32.908;2023-09-12T14:40:23;4.40;;;1.50;;
72584;SDS011;60618;40.084;32.908;2023-09-12T14:42:50;5.38;;;1.80;;
72584;SDS011;60618;40.084;32.908;2023-09-12T14:45:17;4.20;;;1.42;;
72584;SDS011;60618;40.084;32.908;2023-09-12T14:47:44;6.60;;;1.52;;
72584;SDS011;60618;40.084;32.908;2023-09-12T14:50:11;4.70;;;1.67;;